Tuesday, October 21, 2014, 11:07 AM EDT

KSBY, Salisbury-wicomico Cty Reg

Location: Salisbury, MD, United States Lat: 38.333
Local Time: 11:07 AM EDT (15:07 GMT) Lon: -75.5
Time Zone: US/Eastern Elev: 52 ft

Show me the last for .
Show Decoded

2014-10-21 10:54 METAR KSBY 211454Z 25007KT 10SM BKN085 20/13 A2987 RMK AO2 SLP116 60000
                 T02000128 58007 =
2014-10-21 09:54 METAR KSBY 211354Z 22007KT 200V260 10SM FEW110 18/14 A2988 =
2014-10-21 08:54 METAR KSBY 211254Z 19003KT 10SM OVC085 16/13 A2989 =
2014-10-21 07:54 METAR KSBY 211154Z 18005KT 10SM BKN110 15/13 A2989 RMK AO2 SLP123 T01500128
                 10150 20117 53001 =
2014-10-21 06:54 METAR KSBY 211054Z 00000KT 10SM CLR 12/10 A2987 =
2014-10-21 05:54 METAR KSBY 210954Z 11003KT 10SM CLR 12/10 A2988 =
2014-10-21 04:54 METAR KSBY 210854Z AUTO 21003KT 10SM FEW075 OVC090 14/12 A2989 RMK AO2 SLP122
                 T01440117 56018 =
2014-10-21 03:54 METAR KSBY 210754Z AUTO 00000KT 10SM OVC110 14/11 A2990 RMK AO2 SLP128 T01440106
                 =
2014-10-21 02:54 METAR KSBY 210654Z AUTO 00000KT 10SM SCT065 13/09 A2992 RMK AO2 SLP134 T01280094
                 =
2014-10-21 01:54 METAR KSBY 210554Z AUTO 00000KT 10SM FEW060 14/08 A2994 RMK AO2 SLP140 T01440083
                 10144 20106 57016 =
2014-10-21 00:54 METAR KSBY 210454Z AUTO 19003KT 10SM CLR 13/08 A2996 RMK AO2 SLP146 T01280078
                 402000011 =
2014-10-20 23:54 METAR KSBY 210354Z AUTO 00000KT 10SM CLR 11/08 A2997 RMK AO2 SLP151 T01110078 =
2014-10-20 22:54 METAR KSBY 210254Z AUTO 11003KT 10SM CLR 11/08 A2999 RMK AO2 SLP157 T01060078
                 58003 =
2014-10-20 21:54 METAR KSBY 210154Z 11004KT 10SM CLR 11/07 A3000 RMK AO2 SLP159 T01110072 =
2014-10-20 20:54 METAR KSBY 210054Z 00000KT 10SM CLR 11/07 A3000 RMK AO2 SLP162 T01110072 =
2014-10-20 19:54 METAR KSBY 202354Z 12003KT 10SM CLR 11/07 A3000 RMK AO2 SLP160 T01060072 10200
                 20106 53003 =
2014-10-20 18:54 METAR KSBY 202254Z 00000KT 10SM CLR 13/07 A3000 RMK AO2 SLP159 T01280067 =
2014-10-20 17:54 METAR KSBY 202154Z 18006KT 10SM CLR 17/05 A2999 RMK AO2 SLP157 T01670050 =
2014-10-20 16:54 METAR KSBY 202054Z 20009KT 10SM CLR 19/06 A2999 RMK AO2 SLP157 T01890061 56020 =
2014-10-20 15:54 METAR KSBY 201954Z 20013KT 10SM CLR 19/03 A3001 RMK AO2 SLP163 T01940033 =
2014-10-20 14:54 METAR KSBY 201854Z 19012G20KT 10SM CLR 19/04 A3003 RMK AO2 SLP170 T01940044 =
2014-10-20 13:54 METAR KSBY 201754Z 21011G18KT 10SM CLR 19/07 A3005 RMK AO2 SLP177 T01890067
                 10194 20028 58036 =
2014-10-20 12:54 METAR KSBY 201654Z 22012G18KT 10SM CLR 19/07 A3009 RMK AO2 SLP190 T01890067 =
2014-10-20 11:54 METAR KSBY 201554Z 20010KT 10SM CLR 17/04 A3013 RMK AO2 SLP203 T01720039 =

Support USWX by starting your Amazon purchase here.